createdAt,value
2023-05-16T00:01:04.906Z,14.00
2023-05-16T00:03:33.105Z,13.00
2023-05-16T00:06:02.526Z,13.20
2023-05-16T00:08:30.395Z,14.20
2023-05-16T00:10:58.323Z,13.20
2023-05-16T00:13:26.339Z,13.20
2023-05-16T00:15:55.421Z,13.40
2023-05-16T00:18:23.519Z,12.20
2023-05-16T00:20:52.421Z,13.70
2023-05-16T00:23:20.425Z,12.70
2023-05-16T00:25:49.128Z,13.30
2023-05-16T00:28:17.403Z,11.70
2023-05-16T00:30:45.288Z,12.60
2023-05-16T00:33:13.225Z,11.90
2023-05-16T00:35:41.292Z,11.70
2023-05-16T00:38:09.201Z,11.20
2023-05-16T00:40:37.201Z,11.50
2023-05-16T00:43:05.164Z,11.70
2023-05-16T00:45:33.083Z,12.20
2023-05-16T00:48:01.081Z,11.70
2023-05-16T00:50:29.171Z,11.80
2023-05-16T00:52:57.283Z,11.30
2023-05-16T00:55:25.359Z,11.60
2023-05-16T00:57:53.403Z,11.50
2023-05-16T01:00:21.663Z,11.60
2023-05-16T01:02:51.966Z,11.50
2023-05-16T01:05:22.641Z,11.50
2023-05-16T01:07:50.636Z,11.80
2023-05-16T01:10:18.497Z,12.30
2023-05-16T01:13:12.851Z,11.80
2023-05-16T01:15:49.372Z,11.90
2023-05-16T01:18:37.381Z,12.30
2023-05-16T01:21:17.158Z,12.20
2023-05-16T01:24:05.325Z,12.00
2023-05-16T01:26:35.956Z,12.80
2023-05-16T01:29:04.815Z,12.70
2023-05-16T01:31:32.972Z,12.90
2023-05-16T01:34:01.736Z,13.50
2023-05-16T01:36:48.225Z,12.30
2023-05-16T01:39:44.090Z,13.20
2023-05-16T01:42:16.376Z,12.90
2023-05-16T01:44:52.874Z,12.70
2023-05-16T01:47:25.489Z,12.20
2023-05-16T01:50:15.191Z,12.70
2023-05-16T01:52:56.638Z,11.90
2023-05-16T01:55:46.688Z,14.10
2023-05-16T01:58:15.920Z,11.40
2023-05-16T02:00:44.836Z,10.90
2023-05-16T02:03:13.276Z,13.60
2023-05-16T02:05:41.328Z,11.20
2023-05-16T02:08:12.302Z,11.20
2023-05-16T02:10:41.394Z,9.90
2023-05-16T02:13:09.609Z,11.30
2023-05-16T02:15:37.885Z,9.90
2023-05-16T02:18:06.200Z,9.90
2023-05-16T02:20:34.165Z,11.30
2023-05-16T02:23:03.378Z,9.50
2023-05-16T02:25:33.458Z,10.10
2023-05-16T02:28:01.429Z,9.50
2023-05-16T02:30:29.371Z,9.60
2023-05-16T02:32:57.421Z,10.10
2023-05-16T02:35:25.913Z,10.30
2023-05-16T02:37:54.139Z,10.50
2023-05-16T02:40:22.045Z,9.90
2023-05-16T02:42:49.920Z,10.90
2023-05-16T02:45:17.772Z,8.80
2023-05-16T02:47:45.745Z,9.90
2023-05-16T02:50:13.775Z,9.40
2023-05-16T02:52:41.702Z,9.00
2023-05-16T02:55:21.573Z,9.90
2023-05-16T02:57:51.068Z,9.60
2023-05-16T03:00:19.807Z,10.70
2023-05-16T03:02:49.138Z,11.70
2023-05-16T03:05:17.486Z,9.00
2023-05-16T03:07:46.627Z,9.80
2023-05-16T03:10:14.566Z,8.70
2023-05-16T03:12:42.820Z,9.80
2023-05-16T03:15:11.156Z,10.30
2023-05-16T03:17:39.114Z,9.10
2023-05-16T03:20:09.159Z,10.20
2023-05-16T03:22:37.260Z,9.30
2023-05-16T03:25:05.827Z,9.00
2023-05-16T03:27:33.740Z,12.80
2023-05-16T03:30:01.636Z,9.60
2023-05-16T03:32:29.849Z,8.90
2023-05-16T03:34:57.828Z,9.50
2023-05-16T03:37:26.582Z,8.80
2023-05-16T03:39:54.624Z,8.10
2023-05-16T03:42:22.529Z,7.60
2023-05-16T03:44:50.482Z,8.70
2023-05-16T03:47:18.386Z,9.00
2023-05-16T03:49:46.315Z,8.00
2023-05-16T03:52:14.387Z,8.00
2023-05-16T03:54:42.266Z,8.70
2023-05-16T03:57:10.236Z,7.50
2023-05-16T03:59:39.078Z,6.80
2023-05-16T04:02:07.205Z,8.40
2023-05-16T04:04:35.232Z,8.10
2023-05-16T04:07:03.401Z,6.50
2023-05-16T04:09:31.416Z,6.30
2023-05-16T04:12:01.986Z,6.60
2023-05-16T04:14:29.925Z,6.10
2023-05-16T04:16:58.010Z,6.30
2023-05-16T04:19:26.174Z,7.20
2023-05-16T04:21:54.126Z,9.10
2023-05-16T04:24:26.314Z,11.10
2023-05-16T04:26:54.490Z,9.20
2023-05-16T04:29:22.516Z,7.30
2023-05-16T04:31:50.548Z,7.60
2023-05-16T04:34:18.658Z,8.40
2023-05-16T04:36:46.662Z,7.30
2023-05-16T04:39:14.579Z,5.70
2023-05-16T04:41:42.515Z,6.60
2023-05-16T04:44:11.265Z,6.10
2023-05-16T04:46:39.495Z,6.90
2023-05-16T04:49:07.558Z,7.70
2023-05-16T04:51:35.589Z,9.40
2023-05-16T04:54:03.507Z,6.50
2023-05-16T04:56:31.534Z,4.80
2023-05-16T04:58:59.361Z,9.40
2023-05-16T05:01:27.795Z,7.20
2023-05-16T05:03:56.024Z,5.60
2023-05-16T05:06:23.931Z,7.40
2023-05-16T05:08:51.812Z,4.70
2023-05-16T05:11:19.779Z,4.60
2023-05-16T05:13:47.705Z,7.20
2023-05-16T05:16:15.613Z,5.40
2023-05-16T05:18:44.467Z,5.10
2023-05-16T05:21:12.533Z,4.30
2023-05-16T05:23:40.598Z,4.80
2023-05-16T05:26:08.592Z,4.30
2023-05-16T05:28:37.811Z,5.00
2023-05-16T05:31:06.059Z,5.40
2023-05-16T05:33:33.952Z,4.50
2023-05-16T05:36:03.965Z,6.30
2023-05-16T05:38:32.209Z,5.70
2023-05-16T05:41:00.106Z,4.00
2023-05-16T05:43:28.389Z,5.70
2023-05-16T05:45:56.509Z,4.00
2023-05-16T05:48:24.458Z,4.90
2023-05-16T05:50:53.166Z,8.00
2023-05-16T05:53:21.227Z,5.10
2023-05-16T05:55:49.162Z,11.40
2023-05-16T05:58:18.264Z,4.70
2023-05-16T06:00:46.187Z,6.70
2023-05-16T06:03:14.708Z,7.60
2023-05-16T06:05:43.021Z,7.90
2023-05-16T06:08:11.126Z,5.70
2023-05-16T06:10:39.012Z,5.70
2023-05-16T06:13:06.937Z,6.10
2023-05-16T06:15:34.848Z,6.00
2023-05-16T06:18:02.750Z,8.70
2023-05-16T06:20:31.041Z,5.00
2023-05-16T06:22:59.037Z,4.80
2023-05-16T06:25:27.265Z,7.00
2023-05-16T06:27:55.552Z,8.10
2023-05-16T06:30:23.507Z,7.00
2023-05-16T06:32:51.424Z,6.40
2023-05-16T06:35:19.302Z,9.70
2023-05-16T06:37:47.464Z,6.20
2023-05-16T06:40:15.415Z,7.30
2023-05-16T06:42:43.376Z,5.40
2023-05-16T06:45:13.251Z,5.90
2023-05-16T06:47:41.679Z,8.40
2023-05-16T06:50:11.021Z,8.00
2023-05-16T06:52:39.065Z,7.00
2023-05-16T06:55:07.327Z,6.10
2023-05-16T06:57:35.874Z,5.80
2023-05-16T07:00:04.379Z,7.90
2023-05-16T07:02:32.539Z,5.30
2023-05-16T07:05:00.651Z,8.20
2023-05-16T07:07:29.209Z,5.90
2023-05-16T07:09:57.212Z,8.50
2023-05-16T07:12:25.356Z,8.70
2023-05-16T07:14:53.312Z,7.80
2023-05-16T07:17:21.319Z,6.90
2023-05-16T07:19:50.289Z,7.60
2023-05-16T07:22:18.241Z,8.10
2023-05-16T07:24:46.327Z,10.50
2023-05-16T07:27:14.305Z,10.60
2023-05-16T07:29:42.331Z,11.20
2023-05-16T07:32:10.395Z,9.20
2023-05-16T07:34:38.570Z,12.20
2023-05-16T07:37:12.846Z,9.60
2023-05-16T07:39:40.870Z,14.50
2023-05-16T07:42:09.298Z,12.10
2023-05-16T07:44:37.270Z,14.90
2023-05-16T07:47:05.299Z,13.90
2023-05-16T07:49:33.399Z,13.70
2023-05-16T07:52:01.336Z,13.90
2023-05-16T07:54:29.319Z,12.40
2023-05-16T07:56:57.461Z,13.80
2023-05-16T07:59:25.594Z,14.80
2023-05-16T08:01:54.823Z,17.40
2023-05-16T08:04:22.852Z,13.90
2023-05-16T08:06:50.922Z,15.70
2023-05-16T08:09:19.313Z,11.80
2023-05-16T08:11:47.321Z,15.50
2023-05-16T08:14:15.274Z,17.40
2023-05-16T08:16:43.316Z,17.60
2023-05-16T08:19:11.400Z,18.10
2023-05-16T08:21:39.424Z,17.40
2023-05-16T08:24:07.806Z,22.50
2023-05-16T08:26:37.474Z,19.40
2023-05-16T08:29:05.416Z,19.70
2023-05-16T08:31:33.390Z,17.40
2023-05-16T08:34:01.831Z,17.60
2023-05-16T08:36:29.723Z,18.10
2023-05-16T08:38:57.635Z,18.80
2023-05-16T08:41:26.048Z,16.90
2023-05-16T08:43:54.645Z,17.90
2023-05-16T08:46:24.253Z,19.40
2023-05-16T08:48:54.001Z,21.80
2023-05-16T08:51:25.378Z,19.20
2023-05-16T08:54:01.386Z,21.30
2023-05-16T08:56:29.904Z,18.90
2023-05-16T08:58:58.697Z,19.80
2023-05-16T09:01:27.021Z,22.00
2023-05-16T09:03:55.581Z,20.50
2023-05-16T09:06:23.641Z,19.20
2023-05-16T09:08:52.385Z,19.40
2023-05-16T09:11:20.284Z,21.60
2023-05-16T09:13:49.177Z,20.60
2023-05-16T09:16:19.300Z,21.90
2023-05-16T09:18:56.985Z,22.70
2023-05-16T09:21:29.039Z,25.80
2023-05-16T09:23:56.964Z,22.60
2023-05-16T09:26:26.250Z,22.60
2023-05-16T09:28:56.032Z,22.70
2023-05-16T09:31:26.848Z,25.10
2023-05-16T09:33:57.893Z,23.90
2023-05-16T09:36:26.234Z,27.70
2023-05-16T09:38:54.328Z,28.60
2023-05-16T09:41:22.874Z,21.40
2023-05-16T09:43:51.117Z,23.60
2023-05-16T09:46:20.018Z,24.40
2023-05-16T09:48:48.249Z,19.70
2023-05-16T09:51:16.454Z,21.00
2023-05-16T09:53:44.476Z,23.00
2023-05-16T09:56:15.788Z,22.50
2023-05-16T09:58:44.998Z,26.70
2023-05-16T10:01:13.120Z,23.20
2023-05-16T10:03:42.799Z,24.90
2023-05-16T10:06:15.011Z,28.00
2023-05-16T10:08:43.859Z,22.90
2023-05-16T10:11:12.410Z,25.40
2023-05-16T10:13:40.568Z,39.20
2023-05-16T10:16:11.880Z,25.00
2023-05-16T10:18:41.412Z,28.80
2023-05-16T10:21:15.186Z,28.60
2023-05-16T10:23:47.618Z,28.40
2023-05-16T10:26:17.624Z,31.10
2023-05-16T10:28:45.869Z,26.90
2023-05-16T10:31:15.377Z,24.70
2023-05-16T10:33:43.866Z,22.70
2023-05-16T10:36:12.481Z,28.60
2023-05-16T10:38:41.220Z,34.60
2023-05-16T10:41:10.366Z,31.90
2023-05-16T10:43:38.411Z,25.40
2023-05-16T10:46:12.639Z,31.00
2023-05-16T10:48:42.392Z,25.80
2023-05-16T10:51:22.293Z,29.60
2023-05-16T10:53:54.742Z,26.60
2023-05-16T10:56:27.329Z,29.00
2023-05-16T10:58:56.995Z,28.70
2023-05-16T11:01:28.155Z,26.60
2023-05-16T11:03:59.674Z,26.80
2023-05-16T11:06:45.846Z,34.00
2023-05-16T11:09:16.447Z,30.20
2023-05-16T11:11:49.178Z,30.80
2023-05-16T11:14:20.186Z,33.00
2023-05-16T11:17:00.427Z,34.20
2023-05-16T11:19:30.684Z,37.00
2023-05-16T11:22:25.021Z,34.00
2023-05-16T11:25:07.476Z,33.10
2023-05-16T11:27:41.822Z,37.00
2023-05-16T11:30:14.328Z,28.60
2023-05-16T11:32:44.484Z,31.90
2023-05-16T11:35:15.439Z,30.60
2023-05-16T11:37:45.031Z,31.70
2023-05-16T11:40:14.042Z,35.30
2023-05-16T11:42:47.754Z,33.80
2023-05-16T11:47:47.804Z,34.30
2023-05-16T11:50:18.129Z,36.00
2023-05-16T11:52:48.864Z,32.10
2023-05-16T11:55:28.157Z,30.10
2023-05-16T11:58:06.771Z,32.50
2023-05-16T12:00:34.756Z,29.80
2023-05-16T12:03:05.851Z,29.90
2023-05-16T12:05:35.568Z,29.20
2023-05-16T12:08:05.077Z,29.50
2023-05-16T12:10:36.181Z,31.60
2023-05-16T12:13:04.688Z,33.30
2023-05-16T12:15:33.456Z,33.00
2023-05-16T12:18:02.461Z,36.30
2023-05-16T12:20:30.805Z,33.40
2023-05-16T12:22:59.183Z,30.40
2023-05-16T12:25:37.519Z,31.90
2023-05-16T12:28:07.863Z,32.80
2023-05-16T12:30:35.842Z,41.20
2023-05-16T12:33:09.910Z,36.90
2023-05-16T12:35:40.259Z,46.40
2023-05-16T12:38:13.169Z,41.50
2023-05-16T12:40:43.597Z,32.20
2023-05-16T12:43:21.159Z,34.30
2023-05-16T12:45:54.694Z,36.30
2023-05-16T12:50:51.527Z,33.80
2023-05-16T12:53:19.677Z,30.90
2023-05-16T12:55:48.010Z,36.80
2023-05-16T12:58:17.760Z,37.40
2023-05-16T13:00:45.964Z,37.80
2023-05-16T13:03:14.110Z,40.40
2023-05-16T13:05:42.321Z,38.40
2023-05-16T13:08:10.382Z,41.10
2023-05-16T13:10:38.351Z,39.50
2023-05-16T13:13:06.312Z,41.80
2023-05-16T13:15:34.241Z,41.70
2023-05-16T13:18:02.338Z,40.50
2023-05-16T13:20:30.824Z,38.80
2023-05-16T13:22:58.889Z,37.60
2023-05-16T13:25:27.133Z,38.00
2023-05-16T13:27:55.489Z,46.30
2023-05-16T13:30:24.640Z,43.10
2023-05-16T13:32:52.806Z,44.10
2023-05-16T13:35:21.837Z,34.70
2023-05-16T13:37:49.856Z,38.80
2023-05-16T13:40:17.884Z,38.10
2023-05-16T13:42:45.934Z,37.30
2023-05-16T13:45:13.901Z,39.10
2023-05-16T13:47:41.898Z,44.90
2023-05-16T13:50:10.537Z,36.90
2023-05-16T13:52:39.295Z,34.30
2023-05-16T13:55:08.189Z,39.30
2023-05-16T13:57:36.714Z,37.40
2023-05-16T14:00:44.120Z,35.50
2023-05-16T14:03:00.611Z,38.30
2023-05-16T14:05:29.312Z,37.70
2023-05-16T14:07:57.307Z,37.30
2023-05-16T14:10:25.245Z,36.10
2023-05-16T14:12:53.318Z,33.90
2023-05-16T14:15:21.366Z,36.60
2023-05-16T14:17:49.424Z,33.60
2023-05-16T14:20:17.393Z,35.70
2023-05-16T14:22:45.375Z,30.10
2023-05-16T14:25:13.359Z,32.40
2023-05-16T14:27:41.476Z,32.30
2023-05-16T14:30:09.852Z,36.10
2023-05-16T14:32:37.964Z,34.50
2023-05-16T14:35:06.530Z,30.90
2023-05-16T14:37:34.518Z,31.90
2023-05-16T14:40:04.502Z,30.20
2023-05-16T14:42:32.511Z,31.10
2023-05-16T14:45:01.484Z,33.20
2023-05-16T14:47:31.513Z,33.10
2023-05-16T14:50:00.935Z,33.80
2023-05-16T14:52:29.425Z,29.80
2023-05-16T14:55:00.161Z,27.00
2023-05-16T14:57:28.124Z,31.90
2023-05-16T14:59:56.082Z,26.40
2023-05-16T15:02:24.414Z,31.40
2023-05-16T15:04:53.092Z,26.80
2023-05-16T15:07:21.177Z,29.80
2023-05-16T15:09:49.129Z,29.40
2023-05-16T15:12:17.318Z,25.30
2023-05-16T15:14:45.381Z,26.80
2023-05-16T15:17:13.308Z,24.20
2023-05-16T15:19:41.380Z,25.40
2023-05-16T15:22:10.944Z,23.70
2023-05-16T15:24:38.923Z,25.60
2023-05-16T15:27:06.987Z,21.90
2023-05-16T15:29:34.942Z,21.10
2023-05-16T15:32:06.753Z,24.80
2023-05-16T15:34:35.676Z,27.20
2023-05-16T15:37:03.935Z,25.30
2023-05-16T15:39:32.380Z,21.00
2023-05-16T15:42:10.571Z,21.50
2023-05-16T15:44:39.947Z,20.10
2023-05-16T15:47:09.429Z,20.50
2023-05-16T15:49:37.632Z,23.80
2023-05-16T15:52:06.199Z,22.40
2023-05-16T15:54:34.453Z,24.40
2023-05-16T15:57:02.475Z,22.50
2023-05-16T15:59:30.434Z,28.30
2023-05-16T16:01:58.452Z,19.80
2023-05-16T16:04:26.537Z,28.30
2023-05-16T16:06:54.556Z,24.80
2023-05-16T16:09:22.651Z,21.80
2023-05-16T16:11:52.383Z,25.50
2023-05-16T16:14:20.368Z,22.90
2023-05-16T16:16:48.281Z,24.80
2023-05-16T16:19:16.765Z,22.80
2023-05-16T16:21:44.829Z,23.30
2023-05-16T16:24:13.587Z,21.10
2023-05-16T16:26:42.943Z,23.00
2023-05-16T16:29:10.976Z,26.30
2023-05-16T16:31:38.954Z,21.90
2023-05-16T16:34:07.361Z,21.90
2023-05-16T16:36:35.433Z,26.20
2023-05-16T16:39:05.426Z,22.30
2023-05-16T16:41:33.582Z,21.50
2023-05-16T16:44:01.693Z,26.20
2023-05-16T16:46:29.730Z,23.30
2023-05-16T16:48:57.715Z,24.40
2023-05-16T16:51:26.923Z,25.70
2023-05-16T16:53:54.860Z,22.90
2023-05-16T16:56:22.785Z,25.10
2023-05-16T16:58:53.248Z,24.40
2023-05-16T17:01:21.751Z,25.10
2023-05-16T17:03:49.796Z,25.80
2023-05-16T17:06:17.813Z,28.90
2023-05-16T17:08:46.398Z,29.80
2023-05-16T17:11:22.435Z,26.70
2023-05-16T17:13:51.279Z,27.00
2023-05-16T17:16:19.282Z,27.30
2023-05-16T17:18:47.304Z,26.40
2023-05-16T17:21:15.280Z,23.40
2023-05-16T17:23:44.281Z,29.30
2023-05-16T17:26:13.807Z,28.00
2023-05-16T17:28:41.770Z,25.80
2023-05-16T17:31:09.806Z,27.40
2023-05-16T17:33:38.155Z,25.70
2023-05-16T17:36:07.396Z,32.80
2023-05-16T17:38:35.568Z,28.70
2023-05-16T17:41:03.738Z,28.90
2023-05-16T17:43:31.745Z,31.10
2023-05-16T17:45:59.811Z,29.40
2023-05-16T17:48:27.961Z,29.30
2023-05-16T17:50:56.084Z,27.10
2023-05-16T17:53:24.808Z,28.40
2023-05-16T17:55:52.988Z,28.70
2023-05-16T17:58:21.048Z,25.10
2023-05-16T18:00:49.112Z,29.30
2023-05-16T18:03:17.578Z,26.40
2023-05-16T18:05:45.709Z,26.60
2023-05-16T18:08:13.827Z,28.60
2023-05-16T18:10:51.627Z,26.20
2023-05-16T18:13:22.152Z,25.30
2023-05-16T18:15:50.701Z,28.80
2023-05-16T18:18:18.888Z,27.80
2023-05-16T18:20:47.193Z,27.60
2023-05-16T18:23:15.155Z,24.50
2023-05-16T18:25:43.439Z,24.10
2023-05-16T18:28:11.526Z,25.30
2023-05-16T18:30:39.473Z,28.90
2023-05-16T18:33:07.712Z,28.90
2023-05-16T18:35:36.087Z,27.20
2023-05-16T18:38:04.243Z,30.30
2023-05-16T18:40:32.410Z,27.40
2023-05-16T18:43:00.606Z,28.20
2023-05-16T18:45:30.219Z,25.60
2023-05-16T18:47:58.675Z,30.90
2023-05-16T18:50:27.795Z,28.60
2023-05-16T18:52:57.623Z,26.30
2023-05-16T18:55:25.958Z,26.30
2023-05-16T18:57:54.476Z,25.30
2023-05-16T19:00:22.653Z,25.70
2023-05-16T19:02:51.144Z,22.90
2023-05-16T19:05:19.870Z,23.60
2023-05-16T19:07:50.767Z,22.90
2023-05-16T19:10:18.992Z,25.30
2023-05-16T19:12:49.052Z,23.70
2023-05-16T19:15:17.439Z,26.80
2023-05-16T19:17:47.587Z,25.80
2023-05-16T19:20:15.681Z,22.60
2023-05-16T19:22:44.077Z,26.70
2023-05-16T19:25:12.087Z,26.50
2023-05-16T19:27:40.309Z,24.10
2023-05-16T19:30:09.573Z,23.40
2023-05-16T19:32:38.025Z,23.30
2023-05-16T19:35:07.513Z,20.40
2023-05-16T19:37:35.846Z,20.20
2023-05-16T19:40:05.337Z,20.50
2023-05-16T19:42:34.555Z,21.00
2023-05-16T19:45:02.854Z,22.50
2023-05-16T19:47:31.459Z,20.80
2023-05-16T19:49:59.622Z,24.60
2023-05-16T19:52:27.759Z,22.10
2023-05-16T19:54:55.798Z,24.20
2023-05-16T19:57:23.935Z,22.70
2023-05-16T19:59:51.932Z,28.60
2023-05-16T20:02:21.316Z,21.30
2023-05-16T20:04:51.993Z,22.90
2023-05-16T20:07:20.155Z,19.80
2023-05-16T20:09:48.191Z,20.90
2023-05-16T20:12:16.388Z,19.80
2023-05-16T20:14:44.546Z,22.20
2023-05-16T20:17:12.645Z,19.10
2023-05-16T20:19:43.939Z,20.20
2023-05-16T20:22:12.281Z,20.10
2023-05-16T20:24:40.317Z,19.50
2023-05-16T20:27:08.262Z,17.60
2023-05-16T20:29:36.305Z,20.50
2023-05-16T20:32:04.779Z,19.80
2023-05-16T20:34:32.821Z,19.30
2023-05-16T20:37:00.909Z,17.60
2023-05-16T20:39:31.897Z,16.60
2023-05-16T20:42:02.055Z,17.00
2023-05-16T20:44:30.042Z,16.00
2023-05-16T20:46:58.374Z,16.80
2023-05-16T20:49:26.478Z,17.80
2023-05-16T20:51:55.164Z,20.60
2023-05-16T20:54:23.729Z,18.70
2023-05-16T20:56:51.747Z,16.70
2023-05-16T20:59:19.741Z,17.10
2023-05-16T21:01:47.856Z,17.40
2023-05-16T21:04:16.047Z,16.50
2023-05-16T21:06:44.667Z,15.30
2023-05-16T21:09:12.774Z,19.30
2023-05-16T21:11:40.686Z,15.90
2023-05-16T21:14:08.820Z,15.30
2023-05-16T21:16:36.780Z,16.40
2023-05-16T21:19:05.204Z,14.30
2023-05-16T21:21:33.349Z,12.90
2023-05-16T21:24:05.450Z,16.80
2023-05-16T21:26:33.491Z,14.20
2023-05-16T21:29:01.689Z,14.10
2023-05-16T21:31:29.714Z,13.40
2023-05-16T21:33:57.828Z,12.80
2023-05-16T21:36:26.064Z,15.00
2023-05-16T21:38:54.005Z,13.40
2023-05-16T21:41:22.386Z,14.80
2023-05-16T21:43:52.272Z,12.30
2023-05-16T21:46:20.372Z,13.70
2023-05-16T21:48:48.334Z,12.10
2023-05-16T21:51:16.300Z,13.50
2023-05-16T21:53:46.597Z,11.80
2023-05-16T21:56:14.724Z,12.20
2023-05-16T21:58:42.756Z,11.70
2023-05-16T22:01:13.750Z,12.10
2023-05-16T22:03:41.835Z,11.90
2023-05-16T22:06:10.005Z,12.80
2023-05-16T22:08:38.041Z,11.60
2023-05-16T22:11:06.169Z,12.70
2023-05-16T22:13:34.174Z,11.60
2023-05-16T22:16:04.952Z,10.80
2023-05-16T22:18:33.888Z,12.10
2023-05-16T22:21:02.203Z,12.20
2023-05-16T22:23:30.351Z,11.90
2023-05-16T22:25:58.416Z,15.00
2023-05-16T22:28:26.475Z,14.10
2023-05-16T22:30:54.528Z,13.50
2023-05-16T22:33:23.603Z,11.90
2023-05-16T22:35:51.623Z,14.50
2023-05-16T22:38:19.605Z,12.70
2023-05-16T22:40:47.511Z,13.30
2023-05-16T22:43:15.494Z,12.20
2023-05-16T22:45:43.601Z,14.40
2023-05-16T22:48:11.759Z,13.30
2023-05-16T22:50:39.981Z,13.00
2023-05-16T22:53:07.914Z,15.80
2023-05-16T22:55:35.963Z,12.70
2023-05-16T22:58:03.938Z,13.00
2023-05-16T23:00:31.921Z,11.60
2023-05-16T23:03:00.118Z,14.50
2023-05-16T23:05:28.272Z,13.40
2023-05-16T23:07:56.487Z,12.20
2023-05-16T23:10:24.463Z,12.80
2023-05-16T23:12:52.434Z,10.70
2023-05-16T23:15:20.427Z,11.50
2023-05-16T23:17:48.461Z,12.00
2023-05-16T23:20:16.546Z,14.70
2023-05-16T23:22:44.536Z,11.40
2023-05-16T23:25:12.494Z,10.00
2023-05-16T23:27:40.529Z,9.30
2023-05-16T23:30:09.448Z,13.20
2023-05-16T23:32:37.423Z,11.30
2023-05-16T23:35:06.114Z,13.10
2023-05-16T23:37:34.133Z,11.50
2023-05-16T23:40:02.185Z,13.60
2023-05-16T23:42:30.094Z,11.20
2023-05-16T23:44:58.090Z,8.20
2023-05-16T23:47:26.529Z,9.40
2023-05-16T23:49:54.651Z,8.90
2023-05-16T23:52:22.614Z,10.10
2023-05-16T23:54:50.604Z,8.50
2023-05-16T23:57:18.574Z,10.20
2023-05-16T23:59:46.543Z,11.30
